Toyama, Japan

8:34 PM JST on August 20, 2014 (GMT +0900)
Toyama | Change Station
CLOSE
Current Station
Airport
Location: Toyama Airport,
Elevation: 89 ft
Nearby Weather Stations

Elev 89 ft 36.65 °N, 137.19 °E | Updated 34 minutes ago

Partly Cloudy
Partly Cloudy
82 °F
Feels Like 90 °F
N
4
Wind Variable Wind from South

Today
High -- | Low -- °F
--% Chance of Precip.
Yesterday
High -- | Low -- °F
Precip. -- in
5:12 AM 6:36 PM
Waning Crescent, 22% visible
Pressure 29.92 in
Visibility 6.2 miles
Clouds Few 5000 ft
Heat Index 90 °F
Dew Point 75 °F
Humidity 79%
Rainfall 0.00 in
Snow Depth Not available.
UV 0 out of 12
Pollen Not available.
Air Quality Not available.
Flu Activity Not available.
METAR RJNT 201100Z 19003KT 150V220 9999 FEW050 28/24 Q1013

More Conditions Fewer Conditions

Pressure 29.92 in
Visibility 6.2 miles
Clouds Few 5000 ft
Heat Index 90 °F
Dew Point 75 °F
Humidity 79%
Rainfall 0.00 in
Snow Depth Not available.
UV 0 out of 12
Pollen Not available.
Air Quality Not available.
Flu Activity Not available.
METAR RJNT 201100Z 19003KT 150V220 9999 FEW050 28/24 Q1013

More Conditions Fewer Conditions

10-Day Weather Forecast

Almanac

Astronomy

Aug. 20, 2014 Rise Set
Actual Time 5:12 AM JST 6:36 PM JST
Civil Twilight 4:44 AM JST 7:03 PM JST
Nautical Twilight 4:12 AM JST 7:36 PM JST
Astronomical Twilight 3:38 AM JST 8:10 PM JST
Moon 12:24 AM JST 2:48 PM JST
Length of Visible Light 14h 18m
Length of Day
13h 24m
Tomorrow will be 2m 7s shorter.
Waning Crescent, 22% of the Moon is Illuminated
Today
Waning Crescent
Aug 25
New
Sep 2
First Quarter
Sep 8
Full
Sep 15
Last Quarter

Yesterday's Extremes

Country Highs Country Lows

Community

WunderPhotos

Upload Photos

1,745,611 photos uploaded!

Nearby

Snow Depth

Not available.

Earthquake Activity

City Distance Mag. Time & Date
No recent earthquake activity has been reported nearby.
Minimum magnitude displayed is 2.5.

Coastal Water Temperatures

Place Temperature
No Stations Reporting

Nearby Weather Stations